Darstellungsparameter: Aktuell verwendete Einstellungen:
Skalierung der Graphiken ... ?
xyx+y,   Skalierungsfaktor:      Skalierung: Modus: x, Faktor: 1
Darstellungszeitraum ... ?
Vom - - bis: - -   Zeitraum: 15.05.2009 - 15.05.2009
Min/Max/Avg-Anzeige ... ?
Zeige MMA aktuell
Zeige MMA Monat
Zeige MMA alles
Zeige --A aktuell
Zeige --A Monat
Zeige --A alles
Keine MMA-Anzeige
MMA:
Minimum Maximum Average (ber die Originaldaten)
MMA-Basis: 23.02.2003 - 16.05.2020
Quicknavigation für Darstellung... ?
Tage:      1T, 2T, 3T, 5T -1T -2T -3T -5T +1T +2T +3T +5T
Wochen: 1W, 2W, 3W -1W -2W -3W +1W +2W +3W
Monate: 1M, 3M, 6M -1M -3M -6M +1M +3M +6M
Jahre:    1J, 3J, 5J, 10J -1J -3J -5J -10J +1J +3J +5J +10J
Nutze für die Darstellung ... ?
Originaldaten oder Mittelwerte auf ...
Stundenbasis Tagesbasis Wochenbasis
Monatsbasis Jahresbasis      Datenbasis: Original-Daten
Darstellen als:
Statistik (Auto) Statistik J:M      Darstellung:
Zur Graphik,    zurück zur Übersicht aller Sensoren.
 
Tabellarische Datenbersicht: ?
 
Sensor: Nr:Datum:Temp:Abs-Feuchte:Windchill:Wind:
Aussen-T/F 1 15-05-2009 00:11:40 12.9 C 10.59 g/m*3 12.9 C 0 km/h
2 15-05-2009 00:26:40 12.9 C 10.59 g/m*3 12.9 C 0 km/h
3 15-05-2009 00:41:40 12.7 C 10.46 g/m*3 12.7 C 0 km/h
4 15-05-2009 00:56:40 12.8 C 10.53 g/m*3 12.8 C 0 km/h
5 15-05-2009 01:11:40 12.9 C 10.59 g/m*3 12.9 C 0 km/h
6 15-05-2009 01:26:40 13 C 10.43 g/m*3 13 C 0 km/h
7 15-05-2009 01:41:40 13.1 C 10.5 g/m*3 13.1 C 0 km/h
8 15-05-2009 01:56:40 13 C 10.43 g/m*3 13 C 0 km/h
9 15-05-2009 02:11:40 13.1 C 10.38 g/m*3 13.1 C 0 km/h
10 15-05-2009 02:26:40 13.1 C 10.38 g/m*3 13.1 C 0 km/h
11 15-05-2009 02:41:40 13.1 C 10.38 g/m*3 13.1 C 0 km/h
12 15-05-2009 02:56:40 13.1 C 10.38 g/m*3 13.1 C 0 km/h
13 15-05-2009 03:11:40 13.1 C 10.38 g/m*3 13.1 C 0 km/h
14 15-05-2009 03:26:40 13.2 C 10.45 g/m*3 13.2 C 0 km/h
15 15-05-2009 03:41:40 13.3 C 10.51 g/m*3 13.3 C 0 km/h
16 15-05-2009 03:56:40 13.2 C 10.45 g/m*3 13.2 C 0 km/h
17 15-05-2009 04:11:40 13.4 C 10.69 g/m*3 13.4 C 0 km/h
18 15-05-2009 04:26:40 13.4 C 10.58 g/m*3 13.4 C 0 km/h
19 15-05-2009 04:41:41 13.4 C 10.58 g/m*3 13.4 C 0 km/h
20 15-05-2009 04:56:41 13.4 C 10.69 g/m*3 13.4 C 0 km/h
21 15-05-2009 05:11:41 13.5 C 10.76 g/m*3 13.5 C 0 km/h
22 15-05-2009 05:26:41 13.6 C 10.83 g/m*3 13.6 C 0 km/h
23 15-05-2009 05:41:41 13.7 C 10.89 g/m*3 13.7 C 0 km/h
24 15-05-2009 05:56:41 13.8 C 10.96 g/m*3 13.8 C 0 km/h
25 15-05-2009 06:11:41 13.7 C 10.78 g/m*3 13.7 C 0 km/h
Sensor: Nr:Datum:Temp:Abs-Feuchte:Windchill:Wind:
Aussen-T/F 26 15-05-2009 06:26:41 13.8 C 10.84 g/m*3 13.8 C 0 km/h
27 15-05-2009 06:41:41 14.1 C 11.04 g/m*3 14.1 C 0 km/h
28 15-05-2009 06:56:41 14.4 C 11.13 g/m*3 14.4 C 0 km/h
29 15-05-2009 07:11:41 14.6 C 11.26 g/m*3 14.6 C 0 km/h
30 15-05-2009 07:26:41 14.6 C 11.14 g/m*3 14.6 C 0 km/h
31 15-05-2009 07:41:41 14.7 C 11.21 g/m*3 14.7 C 0 km/h
32 15-05-2009 07:56:41 15 C 11.41 g/m*3 15 C 0 km/h
33 15-05-2009 08:11:41 15.8 C 12.11 g/m*3 15.8 C 0 km/h
34 15-05-2009 08:26:41 16.3 C 11.93 g/m*3 16.3 C 0 km/h
35 15-05-2009 08:41:41 16.4 C 11.17 g/m*3 16.4 C 0 km/h
36 15-05-2009 08:56:41 16.5 C 10.67 g/m*3 16.5 C 0 km/h
37 15-05-2009 09:11:41 16.7 C 10.8 g/m*3 16.7 C 0 km/h
38 15-05-2009 09:26:41 16.7 C 10.23 g/m*3 16.7 C 0 km/h
39 15-05-2009 09:41:42 16.8 C 10.29 g/m*3 16.8 C 0 km/h
40 15-05-2009 09:56:02 17.2 C 9.96 g/m*3 17.2 C 0 km/h
41 15-05-2009 10:11:01 17.1 C 9.9 g/m*3 17.1 C 0 km/h
42 15-05-2009 10:26:02 17.9 C 9.77 g/m*3 17.9 C 0 km/h
43 15-05-2009 10:41:02 18.4 C 9.59 g/m*3 18.4 C 0 km/h
44 15-05-2009 10:56:01 18.6 C 9.71 g/m*3 18.6 C 0 km/h
45 15-05-2009 11:11:02 19.3 C 9.29 g/m*3 19.3 C 0 km/h
46 15-05-2009 11:26:02 20.1 C 9.04 g/m*3 20.1 C 0 km/h
47 15-05-2009 11:41:01 20.6 C 9.31 g/m*3 20.6 C 0 km/h
48 15-05-2009 11:56:01 20.6 C 8.95 g/m*3 20.6 C 0 km/h
49 15-05-2009 12:11:01 19.9 C 8.59 g/m*3 19.9 C 0 km/h
50 15-05-2009 12:26:00 20 C 8.64 g/m*3 20 C 0 km/h
Sensor: Nr:Datum:Temp:Abs-Feuchte:Windchill:Wind:
Aussen-T/F 51 15-05-2009 12:41:00 20.4 C 8.49 g/m*3 20.4 C 0 km/h
52 15-05-2009 12:56:00 19.2 C 8.9 g/m*3 19.2 C 0 km/h
53 15-05-2009 13:11:00 17.5 C 9.84 g/m*3 17.5 C 0 km/h
54 15-05-2009 13:26:00 17 C 10.42 g/m*3 17 C 0 km/h
55 15-05-2009 13:41:00 17.5 C 10.59 g/m*3 17.5 C 0 km/h
56 15-05-2009 13:56:59 18.2 C 10.26 g/m*3 18.2 C 0 km/h
57 15-05-2009 14:10:59 17.8 C 9.71 g/m*3 17.8 C 0 km/h
58 15-05-2009 14:26:00 17.9 C 10.08 g/m*3 17.9 C 0 km/h
59 15-05-2009 14:41:59 17.3 C 9.87 g/m*3 17.3 C 0 km/h
60 15-05-2009 14:56:59 16.9 C 9.49 g/m*3 16.9 C 0 km/h
61 15-05-2009 15:11:59 16.5 C 9.97 g/m*3 16.5 C 0 km/h
62 15-05-2009 15:26:59 15.9 C 10.43 g/m*3 15.9 C 0 km/h
63 15-05-2009 15:41:58 16.7 C 11.23 g/m*3 16.7 C 0 km/h
64 15-05-2009 15:56:59 17.6 C 11.4 g/m*3 17.6 C 0 km/h
65 15-05-2009 16:11:59 18.3 C 10.94 g/m*3 18.3 C 0 km/h
66 15-05-2009 16:26:58 18.4 C 10.7 g/m*3 18.4 C 0 km/h
67 15-05-2009 16:41:58 18.2 C 10.72 g/m*3 18.2 C 0 km/h
68 15-05-2009 16:56:58 18.3 C 10.79 g/m*3 18.3 C 0 km/h
69 15-05-2009 17:11:58 18 C 10.75 g/m*3 18 C 0 km/h
70 15-05-2009 17:26:57 16.3 C 9.43 g/m*3 16.3 C 0 km/h
71 15-05-2009 17:41:57 16.4 C 10.05 g/m*3 16.4 C 0 km/h
72 15-05-2009 17:49:57 16.2 C 10.2 g/m*3 16.2 C 0 km/h
73 15-05-2009 18:01:57 15.9 C 10.16 g/m*3 15.9 C 0 km/h
74 15-05-2009 18:13:57 15.7 C 10.17 g/m*3 15.7 C 0 km/h
75 15-05-2009 18:25:57 15.5 C 9.91 g/m*3 15.5 C 0 km/h
Sensor: Nr:Datum:Temp:Abs-Feuchte:Windchill:Wind:
Aussen-T/F 76 15-05-2009 18:37:56 15.3 C 9.92 g/m*3 15.3 C 0 km/h
77 15-05-2009 18:49:57 14.5 C 9.33 g/m*3 14.5 C 0 km/h
78 15-05-2009 19:01:56 14.1 C 9.22 g/m*3 14.1 C 0 km/h
79 15-05-2009 19:13:56 13.8 C 9.41 g/m*3 13.8 C 0 km/h
80 15-05-2009 19:25:56 13.7 C 9.59 g/m*3 13.7 C 0 km/h
81 15-05-2009 19:37:57 13.5 C 9.71 g/m*3 13.5 C 0 km/h
82 15-05-2009 19:49:56 13.5 C 9.83 g/m*3 13.5 C 0 km/h
83 15-05-2009 20:01:56 13.5 C 9.83 g/m*3 13.5 C 0 km/h
84 15-05-2009 20:13:56 13.3 C 9.82 g/m*3 13.3 C 0 km/h
85 15-05-2009 20:25:56 13.2 C 9.76 g/m*3 13.2 C 0 km/h
86 15-05-2009 20:37:56 13.2 C 9.76 g/m*3 13.2 C 0 km/h
87 15-05-2009 20:49:55 13.1 C 9.81 g/m*3 13.1 C 0 km/h
88 15-05-2009 21:01:56 12.8 C 9.74 g/m*3 12.8 C 0 km/h
89 15-05-2009 21:13:56 12.7 C 9.8 g/m*3 12.7 C 0 km/h
90 15-05-2009 21:25:55 12.5 C 9.68 g/m*3 12.5 C 0 km/h
91 15-05-2009 21:37:55 12.5 C 9.78 g/m*3 12.5 C 0 km/h
92 15-05-2009 21:49:55 12.5 C 9.78 g/m*3 12.5 C 0 km/h
93 15-05-2009 22:01:55 12.5 C 9.89 g/m*3 12.5 C 0 km/h
94 15-05-2009 22:13:55 12.5 C 9.89 g/m*3 12.5 C 0 km/h
95 15-05-2009 22:25:55 12.5 C 10 g/m*3 12.5 C 0 km/h
96 15-05-2009 22:37:54 12.5 C 10 g/m*3 12.5 C 0 km/h
97 15-05-2009 22:49:55 12.6 C 10.07 g/m*3 12.6 C 0 km/h
98 15-05-2009 23:01:54 12.6 C 10.07 g/m*3 12.6 C 0 km/h
99 15-05-2009 23:13:54 12.5 C 10 g/m*3 12.5 C 0 km/h
100 15-05-2009 23:25:54 12.4 C 9.94 g/m*3 12.4 C 0 km/h
Sensor: Nr:Datum:Temp:Abs-Feuchte:Windchill:Wind:
Aussen-T/F 101 15-05-2009 23:37:54 12.2 C 9.71 g/m*3 12.2 C 0 km/h
102 15-05-2009 23:49:54 12.4 C 9.4 g/m*3 12.4 C 0 km/h

Legende:
   Min
   Max


Maximal/Minimal-Werte vom 23.02.2003 - 16.05.2020

Sensor Min Max Avg
Temp
(Aussen-T/F)
-16.4 °C
20-12-2009  01:30:01
40.4 °C
25-07-2019  16:20:00
11.1 °C

Die Daten stammen von einer Davis Vantage Pro 2 Wetter-Station und werden unter Linux mit der Software wview2wettercgi und aufbereitet. Alle Angaben erfolgen ohne Gewähr für ihre Vollständigkeit oder Richtigkeit.
Kontakt: Rainer Krienke krienke@uni-koblenz.de . Meine Webseiten an der Uni Koblenz oder privat.
Version: $Revision: 0.78 $